Time,TemperatureF,DewpointF,PressureIn,WindDirection,WindDirectionDegrees,WindSpeedMPH,WindSpeedGustMPH,Humidity,HourlyPrecipIn,Conditions,Clouds,dailyrainin,SolarRadiationWatts/m^2,SoftwareType,DateUTC
2013-04-06 09:29:00,67.7,60.2,30.18,NE,36,0.0,1.0,77,0.00,,,0.00,206,Wunderground v.1.15,2013-04-05 22:29:00,
2013-04-06 09:34:00,67.6,60.9,30.18,NE,36,0.0,4.0,79,0.00,,,0.00,241,Wunderground v.1.15,2013-04-05 22:34:00,
2013-04-06 09:44:00,67.8,60.3,30.18,North,360,1.0,4.0,77,0.00,,,0.00,246,Wunderground v.1.15,2013-04-05 22:44:00,
2013-04-06 09:49:00,67.6,60.9,30.18,North,360,0.0,4.0,79,0.00,,,0.00,376,Wunderground v.1.15,2013-04-05 22:49:00,
2013-04-06 09:54:00,67.6,61.2,30.18,WNW,290,0.0,4.0,80,0.00,,,0.00,387,Wunderground v.1.15,2013-04-05 22:54:00,
2013-04-06 10:04:00,68.0,60.9,30.18,West,269,1.0,1.0,78,0.00,,,0.00,564,Wunderground v.1.15,2013-04-05 23:04:00,
2013-04-06 10:09:00,70.2,61.9,30.18,NNW,333,1.0,4.0,75,0.00,,,0.00,612,Wunderground v.1.15,2013-04-05 23:09:00,
2013-04-06 10:14:00,70.9,61.4,30.18,NW,325,1.0,4.0,72,0.00,,,0.00,578,Wunderground v.1.15,2013-04-05 23:14:00,
2013-04-06 10:24:00,69.8,61.5,30.17,WSW,252,2.0,2.0,75,0.00,,,0.00,599,Wunderground v.1.15,2013-04-05 23:24:00,
2013-04-06 10:34:00,69.5,61.6,30.17,WNW,292,2.0,2.0,76,0.00,,,0.00,561,Wunderground v.1.15,2013-04-05 23:34:00,
2013-04-06 10:39:00,71.0,61.9,30.17,NW,311,2.0,3.0,73,0.00,,,0.00,540,Wunderground v.1.15,2013-04-05 23:39:00,
2013-04-06 10:49:00,72.4,62.1,30.17,NW,310,2.0,4.0,70,0.00,,,0.00,606,Wunderground v.1.15,2013-04-05 23:49:00,
2013-04-06 10:59:00,72.7,61.1,30.16,NNE,16,1.0,4.0,67,0.00,,,0.00,629,Wunderground v.1.15,2013-04-05 23:59:00,
2013-04-06 11:09:00,73.2,59.8,30.16,NE,40,3.0,3.0,63,0.00,,,0.00,788,Wunderground v.1.15,2013-04-06 00:09:00,
2013-04-06 11:14:00,73.6,59.3,30.16,ENE,74,3.0,5.0,61,0.00,,,0.00,411,Wunderground v.1.15,2013-04-06 00:14:00,
2013-04-06 11:19:00,73.4,59.6,30.16,NNW,329,3.0,5.0,62,0.00,,,0.00,875,Wunderground v.1.15,2013-04-06 00:19:00,
2013-04-06 11:29:00,74.3,59.0,30.16,East,91,2.0,5.0,59,0.00,,,0.00,383,Wunderground v.1.15,2013-04-06 00:29:00,
2013-04-06 11:39:00,73.7,61.2,30.15,WSW,248,2.0,10.0,65,0.00,,,0.00,629,Wunderground v.1.15,2013-04-06 00:39:00,
2013-04-06 11:49:00,69.9,61.2,30.15,South,184,3.0,10.0,74,0.00,,,0.00,297,Wunderground v.1.15,2013-04-06 00:49:00,
2013-04-06 11:54:00,69.6,60.9,30.15,SSW,207,2.0,10.0,74,0.00,,,0.00,274,Wunderground v.1.15,2013-04-06 00:54:00,
2013-04-06 11:59:00,69.0,61.1,30.15,South,171,2.0,10.0,76,0.00,,,0.00,285,Wunderground v.1.15,2013-04-06 00:59:00,
2013-04-06 12:09:00,69.6,61.3,30.15,SW,233,1.0,11.0,75,0.00,,,0.00,336,Wunderground v.1.15,2013-04-06 01:09:00,
2013-04-06 12:14:00,69.4,61.9,30.15,West,271,2.0,2.0,77,0.00,,,0.00,315,Wunderground v.1.15,2013-04-06 01:14:00,
2013-04-06 12:24:00,69.7,61.8,30.15,SW,221,1.0,1.0,76,0.00,,,0.00,246,Wunderground v.1.15,2013-04-06 01:24:00,
2013-04-06 12:34:00,70.5,62.2,30.14,WSW,252,2.0,2.0,75,0.00,,,0.00,330,Wunderground v.1.15,2013-04-06 01:34:00,
2013-04-06 12:39:00,70.8,61.3,30.14,WSW,240,1.0,7.0,72,0.00,,,0.00,360,Wunderground v.1.15,2013-04-06 01:39:00,
2013-04-06 12:49:00,71.1,61.6,30.13,SW,228,1.0,7.0,72,0.00,,,0.00,406,Wunderground v.1.15,2013-04-06 01:49:00,
2013-04-06 12:54:00,70.8,60.9,30.13,SE,134,1.0,7.0,71,0.00,,,0.00,366,Wunderground v.1.15,2013-04-06 01:54:00,
2013-04-06 13:04:00,71.3,61.8,30.12,SW,221,2.0,2.0,72,0.00,,,0.00,348,Wunderground v.1.15,2013-04-06 02:04:00,
2013-04-06 13:09:00,71.4,61.9,30.12,West,262,1.0,3.0,72,0.00,,,0.00,334,Wunderground v.1.15,2013-04-06 02:09:00,
2013-04-06 13:14:00,71.5,61.6,30.12,SW,220,1.0,6.0,71,0.00,,,0.00,364,Wunderground v.1.15,2013-04-06 02:14:00,
2013-04-06 13:19:00,71.4,61.1,30.12,SSW,213,1.0,6.0,70,0.00,,,0.00,668,Wunderground v.1.15,2013-04-06 02:19:00,
2013-04-06 13:29:00,71.9,60.8,30.12,SW,229,1.0,6.0,68,0.00,,,0.00,466,Wunderground v.1.15,2013-04-06 02:29:00,
2013-04-06 13:34:00,73.2,61.6,30.12,SSW,192,1.0,6.0,67,0.00,,,0.00,459,Wunderground v.1.15,2013-04-06 02:34:00,
2013-04-06 13:39:00,72.4,61.7,30.12,East,100,1.0,6.0,69,0.00,,,0.00,410,Wunderground v.1.15,2013-04-06 02:39:00,
2013-04-06 13:49:00,71.1,61.2,30.10,SW,227,2.0,6.0,71,0.00,,,0.00,394,Wunderground v.1.15,2013-04-06 02:49:00,
2013-04-06 13:54:00,71.2,60.9,30.10,WSW,252,2.0,2.0,70,0.00,,,0.00,504,Wunderground v.1.15,2013-04-06 02:54:00,
2013-04-06 14:04:00,71.9,61.2,30.10,SW,221,2.0,2.0,69,0.00,,,0.00,392,Wunderground v.1.15,2013-04-06 03:04:00,
2013-04-06 14:09:00,71.9,61.2,30.10,South,180,1.0,6.0,69,0.00,,,0.00,299,Wunderground v.1.15,2013-04-06 03:09:00,
2013-04-06 14:19:00,70.5,61.0,30.10,ESE,120,2.0,6.0,72,0.00,,,0.00,269,Wunderground v.1.15,2013-04-06 03:19:00,
2013-04-06 14:24:00,70.9,61.0,30.10,SSW,209,2.0,2.0,71,0.00,,,0.00,262,Wunderground v.1.15,2013-04-06 03:24:00,
2013-04-06 14:34:00,70.8,60.9,30.09,WNW,294,1.0,6.0,71,0.00,,,0.00,292,Wunderground v.1.15,2013-04-06 03:34:00,
2013-04-06 14:39:00,70.4,60.1,30.09,SW,218,1.0,6.0,70,0.00,,,0.00,445,Wunderground v.1.15,2013-04-06 03:39:00,
2013-04-06 14:44:00,70.8,60.5,30.09,South,171,1.0,6.0,70,0.00,,,0.00,476,Wunderground v.1.15,2013-04-06 03:44:00,
2013-04-06 14:49:00,71.3,61.0,30.09,WNW,297,1.0,6.0,70,0.00,,,0.00,285,Wunderground v.1.15,2013-04-06 03:49:00,
2013-04-06 14:59:00,70.4,60.5,30.08,SW,236,2.0,6.0,71,0.00,,,0.00,299,Wunderground v.1.15,2013-04-06 03:59:00,
2013-04-06 15:04:00,71.4,61.1,30.08,NNE,32,1.0,6.0,70,0.00,,,0.00,471,Wunderground v.1.15,2013-04-06 04:04:00,
2013-04-06 15:14:00,71.2,60.9,30.08,SSW,210,2.0,6.0,70,0.00,,,0.00,364,Wunderground v.1.15,2013-04-06 04:14:00,
2013-04-06 15:19:00,71.4,61.5,30.08,North,355,2.0,6.0,71,0.00,,,0.00,652,Wunderground v.1.15,2013-04-06 04:19:00,
2013-04-06 15:24:00,72.3,62.0,30.08,WNW,300,2.0,2.0,70,0.00,,,0.00,359,Wunderground v.1.15,2013-04-06 04:24:00,
2013-04-06 15:34:00,71.4,61.5,30.08,WSW,238,1.0,8.0,71,0.00,,,0.00,192,Wunderground v.1.15,2013-04-06 04:34:00,
2013-04-06 15:44:00,70.9,61.8,30.08,North,360,1.0,8.0,73,0.00,,,0.00,246,Wunderground v.1.15,2013-04-06 04:44:00,
2013-04-06 15:49:00,71.1,62.4,30.08,North,360,1.0,8.0,74,0.00,,,0.00,243,Wunderground v.1.15,2013-04-06 04:49:00,
2013-04-06 15:59:00,69.9,62.0,30.08,NE,48,1.0,8.0,76,0.00,,,0.00,181,Wunderground v.1.15,2013-04-06 04:59:00,
2013-04-06 16:04:00,70.3,62.7,30.08,NW,318,1.0,10.0,77,0.00,,,0.00,264,Wunderground v.1.15,2013-04-06 05:04:00,
2013-04-06 16:09:00,71.3,63.7,30.08,SW,230,1.0,10.0,77,0.00,,,0.00,369,Wunderground v.1.15,2013-04-06 05:09:00,
2013-04-06 16:19:00,71.2,62.1,30.08,WNW,288,1.0,10.0,73,0.00,,,0.00,306,Wunderground v.1.15,2013-04-06 05:19:00,
2013-04-06 16:24:00,71.1,62.0,30.08,NNW,343,1.0,1.0,73,0.00,,,0.00,202,Wunderground v.1.15,2013-04-06 05:24:00,
2013-04-06 16:34:00,71.0,62.3,30.08,SSW,211,1.0,1.0,74,0.00,,,0.00,292,Wunderground v.1.15,2013-04-06 05:34:00,
2013-04-06 16:44:00,71.1,62.4,30.08,NNE,29,1.0,8.0,74,0.00,,,0.00,192,Wunderground v.1.15,2013-04-06 05:44:00,
2013-04-06 16:49:00,71.0,61.9,30.08,West,276,1.0,8.0,73,0.00,,,0.00,204,Wunderground v.1.15,2013-04-06 05:49:00,
2013-04-06 16:59:00,69.9,60.8,30.08,NW,317,1.0,8.0,73,0.00,,,0.00,193,Wunderground v.1.15,2013-04-06 05:59:00,
2013-04-06 17:04:00,69.8,60.8,30.08,North,5,1.0,1.0,73,0.00,,,0.00,167,Wunderground v.1.15,2013-04-06 06:04:00,
2013-04-06 17:09:00,70.5,61.0,30.08,ESE,118,1.0,5.0,72,0.00,,,0.00,156,Wunderground v.1.15,2013-04-06 06:09:00,
2013-04-06 17:14:00,70.0,60.9,30.08,North,360,1.0,5.0,73,0.00,,,0.00,151,Wunderground v.1.15,2013-04-06 06:14:00,
2013-04-06 17:19:00,69.8,60.4,30.08,NNE,25,1.0,5.0,72,0.00,,,0.00,137,Wunderground v.1.15,2013-04-06 06:19:00,
2013-04-06 17:29:00,69.3,60.7,30.08,NE,41,1.0,5.0,74,0.00,,,0.00,70,Wunderground v.1.15,2013-04-06 06:29:00,
2013-04-06 17:34:00,69.0,60.7,30.08,NW,312,1.0,1.0,75,0.00,,,0.00,65,Wunderground v.1.15,2013-04-06 06:34:00,
2013-04-06 17:44:00,68.5,60.6,30.08,NNE,21,1.0,1.0,76,0.00,,,0.00,58,Wunderground v.1.15,2013-04-06 06:44:00,
2013-04-06 17:49:00,68.5,60.6,30.08,ENE,59,1.0,2.0,76,0.00,,,0.00,54,Wunderground v.1.15,2013-04-06 06:49:00,
2013-04-06 17:54:00,68.3,60.4,30.08,North,355,1.0,1.0,76,0.00,,,0.00,51,Wunderground v.1.15,2013-04-06 06:54:00,
2013-04-06 18:04:00,67.9,60.1,30.08,SSW,196,1.0,1.0,76,0.00,,,0.00,37,Wunderground v.1.15,2013-04-06 07:04:00,
2013-04-06 18:09:00,67.8,60.3,30.08,SSW,199,0.0,4.0,77,0.00,,,0.00,28,Wunderground v.1.15,2013-04-06 07:09:00,
2013-04-06 18:14:00,67.7,60.2,30.08,NNE,12,0.0,4.0,77,0.00,,,0.00,25,Wunderground v.1.15,2013-04-06 07:14:00,
2013-04-06 18:24:00,67.6,60.5,30.08,NNE,12,0.0,4.0,78,0.00,,,0.00,16,Wunderground v.1.15,2013-04-06 07:24:00,
2013-04-06 18:34:00,67.4,59.9,30.08,NE,46,0.0,3.0,77,0.00,,,0.00,7,Wunderground v.1.15,2013-04-06 07:34:00,
2013-04-06 18:44:00,67.2,60.5,30.08,NE,42,0.0,3.0,79,0.00,,,0.00,0,Wunderground v.1.15,2013-04-06 07:44:00,
2013-04-06 18:49:00,67.0,60.6,30.08,NE,42,0.0,3.0,80,0.00,,,0.00,0,Wunderground v.1.15,2013-04-06 07:49:00,
2013-04-06 18:54:00,66.8,60.4,30.08,NE,42,0.0,3.0,80,0.00,,,0.00,0,Wunderground v.1.15,2013-04-06 07:54:00,
2013-04-06 19:04:00,66.2,60.2,30.08,NE,42,0.0,3.0,81,0.00,,,0.00,0,Wunderground v.1.15,2013-04-06 08:04:00,
2013-04-06 19:14:00,65.7,60.1,30.09,NE,42,0.0,3.0,82,0.00,,,0.00,0,Wunderground v.1.15,2013-04-06 08:14:00,
2013-04-06 19:19:00,65.3,59.7,30.09,NE,42,0.0,3.0,82,0.00,,,0.00,0,Wunderground v.1.15,2013-04-06 08:19:00,
2013-04-06 19:24:00,65.2,59.9,30.09,NE,42,0.0,3.0,83,0.00,,,0.00,0,Wunderground v.1.15,2013-04-06 08:24:00,
2013-04-06 19:34:00,64.9,59.6,30.09,NE,42,0.0,0.0,83,0.00,,,0.00,0,Wunderground v.1.15,2013-04-06 08:34:00,
2013-04-06 19:49:00,64.4,59.5,30.10,NE,42,0.0,0.0,84,0.00,,,0.00,0,Wunderground v.1.15,2013-04-06 08:49:00,
2013-04-06 19:59:00,64.3,59.4,30.10,NE,42,0.0,0.0,84,0.00,,,0.00,0,Wunderground v.1.15,2013-04-06 08:59:00,
2013-04-06 20:04:00,64.3,59.4,30.10,NE,42,0.0,0.0,84,0.00,,,0.00,0,Wunderground v.1.15,2013-04-06 09:04:00,
2013-04-06 20:14:00,64.4,59.1,30.10,NE,42,0.0,0.0,83,0.00,,,0.00,0,Wunderground v.1.15,2013-04-06 09:14:00,
2013-04-06 20:19:00,64.5,59.2,30.10,NE,42,0.0,0.0,83,0.00,,,0.00,0,Wunderground v.1.15,2013-04-06 09:19:00,
2013-04-06 20:29:00,64.4,59.1,30.10,NE,42,0.0,0.0,83,0.00,,,0.00,0,Wunderground v.1.15,2013-04-06 09:29:00,
2013-04-06 20:39:00,64.3,59.4,30.10,NE,42,0.0,1.0,84,0.00,,,0.00,0,Wunderground v.1.15,2013-04-06 09:39:00,